Time;durP1;ratioP1;P1;durP2;ratioP2;P2;SDS_P1;SDS_P2;PMS_P1;PMS_P2;Temp;Humidity;BMP_temperature;BMP_pressure;BME280_temperature;BME280_humidity;BME280_pressure;Samples;Min_cycle;Max_cycle;Signal;HPM_P1;HPM_P2
2022/10/04 00:01:54;;;;;;;5.20;3.27;;;9.70;99.90;;;;;;6253763;22;20218;-44
2022/10/04 00:04:28;;;;;;;4.97;2.97;;;9.70;99.90;;;;;;6253836;22;20162;-44
2022/10/04 00:07:05;;;;;;;7.90;3.33;;;9.70;99.90;;;;;;6253525;22;20201;-46
2022/10/04 00:09:51;;;;;;;3.57;3.03;;;9.70;99.90;;;;;;6253681;22;20528;-43
2022/10/04 00:12:21;;;;;;;4.80;3.17;;;9.70;99.90;;;;;;6254006;22;20158;-44
2022/10/04 00:14:48;;;;;;;7.03;3.67;;;9.70;99.90;;;;;;6253544;22;20150;-44
2022/10/04 00:17:21;;;;;;;7.83;3.77;;;9.70;99.90;;;;;;6251717;23;20678;-45
2022/10/04 00:19:49;;;;;;;6.17;3.03;;;9.70;99.90;;;;;;6253609;22;20150;-45
2022/10/04 00:22:21;;;;;;;6.23;2.87;;;9.60;99.90;;;;;;6253703;22;20148;-45
2022/10/04 00:25:12;;;;;;;4.87;3.17;;;9.60;99.90;;;;;;6251398;23;20146;-46
2022/10/04 00:27:59;;;;;;;8.30;3.03;;;9.70;99.90;;;;;;6238741;23;20514;-43
2022/10/04 00:30:24;;;;;;;7.33;3.13;;;9.60;99.90;;;;;;6253067;23;20165;-46
2022/10/04 00:33:01;;;;;;;8.43;3.87;;;9.60;99.90;;;;;;6253224;22;20173;-46
2022/10/04 00:35:26;;;;;;;5.00;3.07;;;9.60;99.90;;;;;;6253513;22;20147;-45
2022/10/04 00:37:58;;;;;;;6.37;3.00;;;9.50;99.90;;;;;;6252774;22;20275;-45
2022/10/04 00:40:29;;;;;;;3.83;2.80;;;9.60;99.90;;;;;;6251510;23;20497;-45
2022/10/04 00:43:18;;;;;;;5.63;3.33;;;9.60;99.90;;;;;;6253951;23;20195;-45
2022/10/04 00:45:50;;;;;;;3.70;3.10;;;9.50;99.90;;;;;;6253407;22;20144;-45
2022/10/04 00:48:53;;;;;;;5.17;3.27;;;9.60;99.90;;;;;;6254527;22;20183;-45
2022/10/04 00:51:54;;;;;;;4.53;3.30;;;9.60;99.90;;;;;;6254066;23;20153;-43
2022/10/04 00:54:32;;;;;;;8.73;3.47;;;9.50;99.90;;;;;;6249927;22;20199;-44
2022/10/04 00:57:03;;;;;;;5.80;3.40;;;9.50;99.90;;;;;;6251477;23;20181;-45
2022/10/04 00:59:48;;;;;;;5.13;3.20;;;9.50;99.90;;;;;;6254797;22;20163;-46
2022/10/04 01:02:17;;;;;;;3.90;3.37;;;9.50;99.90;;;;;;6253611;22;20140;-44
2022/10/04 01:04:52;;;;;;;4.80;3.20;;;9.50;99.90;;;;;;6253475;22;20287;-45
2022/10/04 01:07:26;;;;;;;5.00;3.20;;;9.50;99.90;;;;;;6253761;22;20177;-44
2022/10/04 01:09:56;;;;;;;5.53;3.27;;;9.50;99.90;;;;;;6251918;23;20152;-46
2022/10/04 01:12:49;;;;;;;5.50;3.23;;;9.50;99.90;;;;;;6253769;22;20182;-45
2022/10/04 01:15:41;;;;;;;6.80;3.50;;;9.50;99.90;;;;;;6253995;22;20538;-44
2022/10/04 01:18:18;;;;;;;3.67;2.97;;;9.40;99.90;;;;;;6253373;22;20173;-44
2022/10/04 01:21:04;;;;;;;4.80;3.13;;;9.40;99.90;;;;;;6253499;22;20146;-45
2022/10/04 01:23:44;;;;;;;8.40;3.50;;;9.50;99.90;;;;;;6253649;22;20155;-44
2022/10/04 01:26:25;;;;;;;4.87;3.10;;;9.40;99.90;;;;;;6255121;23;20464;-46
2022/10/04 01:28:52;;;;;;;3.57;2.87;;;9.40;99.90;;;;;;6250187;22;20154;-44
2022/10/04 01:31:18;;;;;;;6.50;3.10;;;9.40;99.90;;;;;;6248999;23;20183;-43
2022/10/04 01:33:44;;;;;;;4.77;3.20;;;9.30;99.90;;;;;;6250169;22;20260;-45
2022/10/04 01:36:10;;;;;;;3.93;3.27;;;9.40;99.90;;;;;;6247893;23;20160;-44
2022/10/04 01:38:36;;;;;;;3.77;3.03;;;9.30;99.90;;;;;;6251529;22;20529;-43
2022/10/04 01:41:04;;;;;;;6.10;3.30;;;9.30;99.90;;;;;;6250778;22;20236;-43
2022/10/04 01:43:35;;;;;;;6.10;3.20;;;9.30;99.90;;;;;;6249316;23;20176;-45
2022/10/04 01:46:10;;;;;;;4.87;2.60;;;9.30;99.90;;;;;;6250693;22;20184;-46
2022/10/04 01:48:40;;;;;;;6.43;3.03;;;9.30;99.90;;;;;;6249971;22;20607;-40
2022/10/04 01:51:16;;;;;;;5.60;3.00;;;9.20;99.90;;;;;;6246632;22;20144;-39
2022/10/04 01:54:08;;;;;;;4.57;3.10;;;9.20;99.90;;;;;;6246433;22;20243;-41
2022/10/04 01:56:57;;;;;;;6.70;3.30;;;9.20;99.90;;;;;;6246066;22;20571;-39
2022/10/04 01:59:28;;;;;;;5.33;3.17;;;9.10;99.90;;;;;;6244345;23;20235;-42
2022/10/04 02:02:03;;;;;;;5.30;3.47;;;9.10;99.90;;;;;;6246310;22;20143;-40
2022/10/04 02:04:37;;;;;;;8.40;3.37;;;9.10;99.90;;;;;;6246544;22;20157;-41
2022/10/04 02:07:10;;;;;;;4.90;3.40;;;9.10;99.90;;;;;;6246018;22;20175;-41
2022/10/04 02:09:41;;;;;;;5.77;3.80;;;9.00;99.90;;;;;;6246253;22;20152;-38
2022/10/04 02:12:08;;;;;;;5.60;3.90;;;9.00;99.90;;;;;;6246019;22;20153;-43
2022/10/04 02:14:34;;;;;;;4.97;3.10;;;9.00;99.90;;;;;;6245835;22;20480;-40
2022/10/04 02:17:03;;;;;;;7.60;3.50;;;9.00;99.90;;;;;;6245704;22;20616;-39
2022/10/04 02:19:37;;;;;;;5.73;3.37;;;9.00;99.90;;;;;;6246079;22;20153;-40
2022/10/04 02:22:04;;;;;;;4.60;3.17;;;8.90;99.90;;;;;;6246131;22;20511;-39
2022/10/04 02:24:34;;;;;;;10.43;3.30;;;8.90;99.90;;;;;;6245973;22;20157;-40
2022/10/04 02:27:00;;;;;;;6.20;3.20;;;8.90;99.90;;;;;;6245597;22;20215;-41
2022/10/04 02:29:25;;;;;;;4.63;3.10;;;8.90;99.90;;;;;;6246694;22;20157;-39
2022/10/04 02:34:36;;;;;;;5.03;3.30;;;8.80;99.90;;;;;;6247755;23;20151;-39
2022/10/04 02:37:04;;;;;;;9.13;3.70;;;8.80;99.90;;;;;;6248117;22;20180;-40
2022/10/04 02:39:46;;;;;;;5.73;3.37;;;8.80;99.90;;;;;;6247741;22;20654;-38
2022/10/04 02:42:24;;;;;;;5.80;3.73;;;8.80;99.90;;;;;;6247691;22;20524;-41
2022/10/04 02:44:58;;;;;;;7.53;3.30;;;8.80;99.90;;;;;;6247812;22;20224;-40
2022/10/04 02:47:36;;;;;;;5.00;3.50;;;8.80;99.90;;;;;;6247774;22;20206;-38
2022/10/04 02:50:15;;;;;;;5.33;3.27;;;8.80;99.90;;;;;;6248120;22;20180;-42
2022/10/04 02:52:49;;;;;;;5.10;3.10;;;8.70;99.90;;;;;;6247989;22;20172;-45
2022/10/04 02:55:31;;;;;;;3.60;2.87;;;8.70;99.90;;;;;;6245903;23;20613;-44
2022/10/04 02:57:58;;;;;;;4.57;3.63;;;8.70;99.90;;;;;;6247681;22;20176;-42
2022/10/04 03:00:29;;;;;;;7.17;2.87;;;8.70;99.90;;;;;;6247375;22;20234;-43
2022/10/04 03:03:27;;;;;;;5.63;3.40;;;8.60;99.90;;;;;;6245790;23;20227;-39
2022/10/04 03:06:13;;;;;;;5.50;3.43;;;8.60;99.90;;;;;;6245764;23;20163;-40
2022/10/04 03:08:50;;;;;;;9.10;3.63;;;8.60;99.90;;;;;;6247703;22;20175;-40
2022/10/04 03:11:19;;;;;;;10.30;3.87;;;8.60;99.90;;;;;;6247555;22;20144;-37
2022/10/04 03:13:48;;;;;;;4.60;3.27;;;8.50;99.90;;;;;;6245596;23;20176;-40
2022/10/04 03:16:14;;;;;;;6.67;3.93;;;8.60;99.90;;;;;;6247781;22;20152;-44
2022/10/04 03:18:41;;;;;;;4.10;3.27;;;8.50;99.90;;;;;;6247094;22;20148;-43
2022/10/04 03:21:10;;;;;;;5.13;3.50;;;8.50;99.90;;;;;;6247512;22;20162;-43
2022/10/04 03:23:38;;;;;;;12.13;4.07;;;8.60;99.90;;;;;;6247186;22;20222;-43
2022/10/04 03:26:18;;;;;;;11.13;3.73;;;8.50;99.90;;;;;;6247146;22;20178;-42
2022/10/04 03:28:45;;;;;;;5.57;3.80;;;8.50;99.90;;;;;;6247508;22;20140;-43
2022/10/04 03:31:12;;;;;;;4.37;3.20;;;8.50;99.90;;;;;;6247422;22;20543;-44
2022/10/04 03:33:39;;;;;;;7.03;3.17;;;8.50;99.90;;;;;;6247537;22;20191;-41
2022/10/04 03:36:05;;;;;;;9.40;3.50;;;8.50;99.90;;;;;;6247503;22;20155;-42
2022/10/04 03:38:34;;;;;;;5.70;3.50;;;8.50;99.90;;;;;;6247013;23;20497;-40
2022/10/04 03:41:01;;;;;;;5.07;3.50;;;8.50;99.90;;;;;;6246590;22;20178;-41
2022/10/04 03:43:33;;;;;;;4.80;3.30;;;8.40;99.90;;;;;;6246868;22;20253;-42
2022/10/04 03:46:00;;;;;;;7.77;3.50;;;8.40;99.90;;;;;;6247402;22;20482;-41
2022/10/04 03:48:40;;;;;;;6.17;3.40;;;8.40;99.90;;;;;;6246919;22;20162;-40
2022/10/04 03:51:12;;;;;;;6.47;3.57;;;8.40;99.90;;;;;;6246986;22;20137;-39
2022/10/04 03:53:44;;;;;;;10.93;3.13;;;8.40;99.90;;;;;;6247184;22;20655;-40
2022/10/04 03:56:31;;;;;;;7.07;3.60;;;8.30;99.90;;;;;;6245225;23;20148;-40
2022/10/04 03:58:58;;;;;;;5.20;3.47;;;8.30;99.90;;;;;;6247187;22;20156;-43
2022/10/04 04:01:26;;;;;;;7.17;3.47;;;8.20;99.90;;;;;;6246665;22;20210;-45
2022/10/04 04:04:14;;;;;;;6.13;3.30;;;8.20;99.90;;;;;;6246859;22;20155;-42
2022/10/04 04:07:18;;;;;;;5.53;3.20;;;8.20;99.90;;;;;;6245024;23;20186;-41
2022/10/04 04:10:06;;;;;;;4.37;3.33;;;8.10;99.90;;;;;;6214250;22;20163;-42
2022/10/04 04:12:58;;;;;;;4.40;2.93;;;8.10;99.90;;;;;;6246847;22;20194;-43
2022/10/04 04:15:29;;;;;;;5.90;3.30;;;8.10;99.90;;;;;;6211886;22;20160;-41
2022/10/04 04:17:58;;;;;;;6.07;3.37;;;8.10;99.90;;;;;;6244914;23;20499;-41
2022/10/04 04:20:33;;;;;;;7.63;4.13;;;8.00;99.90;;;;;;6246865;22;20152;-43
2022/10/04 04:23:14;;;;;;;4.97;3.07;;;8.00;99.90;;;;;;6246868;22;20234;-44
2022/10/04 04:25:47;;;;;;;4.83;3.33;;;8.00;99.90;;;;;;6246628;22;20162;-43
2022/10/04 04:28:16;;;;;;;8.23;3.93;;;8.00;99.90;;;;;;6244839;23;20498;-45
2022/10/04 04:30:48;;;;;;;5.23;3.70;;;8.00;99.90;;;;;;6246808;22;20227;-42
2022/10/04 04:33:41;;;;;;;5.47;3.70;;;7.90;99.90;;;;;;6246500;22;20195;-44
2022/10/04 04:36:12;;;;;;;8.33;3.87;;;8.00;99.90;;;;;;6235121;23;20519;-43
2022/10/04 04:39:33;;;;;;;7.57;3.93;;;7.90;99.90;;;;;;6246420;22;20140;-43
2022/10/04 04:41:26;;;;;;;6.70;3.77;;;7.90;99.90;;;;;;6246814;23;20160;-44
2022/10/04 04:43:52;;;;;;;6.40;3.43;;;7.90;99.90;;;;;;6244760;23;20190;-45
2022/10/04 04:46:17;;;;;;;11.90;4.37;;;7.90;99.90;;;;;;6246253;22;20521;-44
2022/10/04 04:48:45;;;;;;;5.73;3.57;;;8.00;99.90;;;;;;6246237;22;20163;-41
2022/10/04 04:51:18;;;;;;;10.67;4.03;;;8.00;99.90;;;;;;6246209;22;20156;-44
2022/10/04 04:53:46;;;;;;;8.40;4.60;;;8.00;99.90;;;;;;6246429;22;20543;-44
2022/10/04 04:56:18;;;;;;;13.03;4.43;;;8.00;99.90;;;;;;6246122;22;20171;-45
2022/10/04 04:58:47;;;;;;;7.77;4.07;;;8.00;99.90;;;;;;6246228;22;20132;-44
2022/10/04 05:01:28;;;;;;;7.43;3.73;;;8.00;99.90;;;;;;6246472;22;20201;-42
2022/10/04 05:04:11;;;;;;;11.90;3.67;;;8.10;99.90;;;;;;6246171;22;20159;-45
2022/10/04 05:06:40;;;;;;;5.73;3.30;;;8.10;99.90;;;;;;6244548;23;20266;-44
2022/10/04 05:09:20;;;;;;;11.60;4.17;;;8.20;99.90;;;;;;6246079;22;20159;-43
2022/10/04 05:11:47;;;;;;;7.70;3.43;;;8.10;99.90;;;;;;6246817;22;20243;-43
2022/10/04 05:14:16;;;;;;;14.17;3.93;;;8.20;99.90;;;;;;6246369;22;20490;-45
2022/10/04 05:16:53;;;;;;;8.57;4.10;;;8.20;99.90;;;;;;6246444;22;20522;-43
2022/10/04 05:19:23;;;;;;;7.10;3.60;;;8.10;99.90;;;;;;6246081;22;20151;-45
2022/10/04 05:21:52;;;;;;;15.90;3.87;;;8.10;99.90;;;;;;6244476;23;20178;-44
2022/10/04 05:24:25;;;;;;;9.07;3.80;;;8.20;99.90;;;;;;6246354;22;20182;-42
2022/10/04 05:26:54;;;;;;;8.40;3.83;;;8.10;99.90;;;;;;6246774;22;20735;-42
2022/10/04 05:29:25;;;;;;;9.23;4.03;;;8.10;99.90;;;;;;6244677;23;20167;-43
2022/10/04 05:31:54;;;;;;;5.17;3.33;;;8.00;99.90;;;;;;6246517;22;20170;-45
2022/10/04 05:34:31;;;;;;;7.53;3.40;;;8.00;99.90;;;;;;6246248;22;20255;-44
2022/10/04 05:37:19;;;;;;;8.30;3.60;;;8.00;99.90;;;;;;6245979;22;20174;-42
2022/10/04 05:39:51;;;;;;;6.40;3.77;;;7.90;99.90;;;;;;6246598;22;20217;-44
2022/10/04 05:42:25;;;;;;;8.87;3.70;;;7.90;99.90;;;;;;6244831;23;20205;-44
2022/10/04 05:44:56;;;;;;;5.50;3.77;;;7.90;99.90;;;;;;6244519;23;20237;-42
2022/10/04 05:47:26;;;;;;;5.80;3.53;;;7.90;99.90;;;;;;6246476;22;20187;-43
2022/10/04 05:49:54;;;;;;;5.87;3.80;;;7.90;99.90;;;;;;6246301;22;20186;-45
2022/10/04 05:52:33;;;;;;;11.23;3.90;;;7.90;99.90;;;;;;6246230;22;20505;-44
2022/10/04 05:55:11;;;;;;;6.47;3.57;;;7.90;99.90;;;;;;6244738;23;20147;-45
2022/10/04 05:58:21;;;;;;;7.37;3.80;;;7.80;99.90;;;;;;6246215;22;20201;-44
2022/10/04 06:01:02;;;;;;;6.37;2.97;;;7.80;99.90;;;;;;6246820;23;20155;-43
2022/10/04 06:03:30;;;;;;;8.43;4.07;;;7.70;99.90;;;;;;6246437;22;20159;-43
2022/10/04 06:06:00;;;;;;;7.50;3.77;;;7.70;99.90;;;;;;6248487;22;20178;-42
2022/10/04 06:08:55;;;;;;;7.60;4.27;;;7.70;99.90;;;;;;6248334;22;20231;-43
2022/10/04 06:11:42;;;;;;;8.67;3.83;;;7.60;99.90;;;;;;6248248;23;20140;-45
2022/10/04 06:14:13;;;;;;;9.10;4.30;;;7.60;99.90;;;;;;6248532;22;20585;-42
2022/10/04 06:16:57;;;;;;;11.50;3.80;;;7.60;99.90;;;;;;6246616;23;20577;-44
2022/10/04 06:19:22;;;;;;;7.40;3.60;;;7.60;99.90;;;;;;6248928;22;20147;-42
2022/10/04 06:22:21;;;;;;;7.93;4.10;;;7.60;99.90;;;;;;6249103;22;20151;-44
2022/10/04 06:25:03;;;;;;;6.73;3.60;;;7.60;99.90;;;;;;6198684;22;20163;-45
2022/10/04 06:27:41;;;;;;;6.57;3.90;;;7.60;99.90;;;;;;6248159;22;20211;-42
2022/10/04 06:30:13;;;;;;;6.97;3.90;;;7.60;99.90;;;;;;6247732;22;20151;-42
2022/10/04 06:32:45;;;;;;;4.73;3.90;;;7.60;99.90;;;;;;6247539;22;20213;-44
2022/10/04 06:35:29;;;;;;;6.00;4.07;;;7.70;99.90;;;;;;6247714;22;20598;-43
2022/10/04 06:38:13;;;;;;;9.60;4.77;;;7.70;99.90;;;;;;6246157;23;20236;-42
2022/10/04 06:40:56;;;;;;;7.40;3.80;;;7.70;99.90;;;;;;6247978;22;20146;-41
2022/10/04 06:43:49;;;;;;;8.17;4.10;;;7.80;99.90;;;;;;6247628;22;20183;-42
2022/10/04 06:46:36;;;;;;;5.43;4.10;;;7.80;99.90;;;;;;6247635;22;20163;-43
2022/10/04 06:49:17;;;;;;;8.53;4.07;;;7.90;99.90;;;;;;6248096;22;20167;-44
2022/10/04 06:52:14;;;;;;;6.70;4.87;;;7.90;99.90;;;;;;6246418;23;20179;-43
2022/10/04 06:55:17;;;;;;;10.43;5.23;;;8.00;99.90;;;;;;6247787;22;20166;-44
2022/10/04 06:58:07;;;;;;;8.07;4.97;;;8.10;99.90;;;;;;6247328;23;20241;-45
2022/10/04 07:00:56;;;;;;;10.30;5.33;;;8.20;99.90;;;;;;6247574;22;20142;-44
2022/10/04 07:03:44;;;;;;;10.33;4.77;;;8.30;99.90;;;;;;6200672;22;20173;-42
2022/10/04 07:06:11;;;;;;;8.87;4.40;;;8.40;99.90;;;;;;6247838;22;20147;-44
2022/10/04 07:08:46;;;;;;;7.13;4.67;;;8.50;99.90;;;;;;6248556;22;20200;-43
2022/10/04 07:11:23;;;;;;;13.83;5.47;;;8.50;99.90;;;;;;6247700;22;20148;-44
2022/10/04 07:14:31;;;;;;;11.73;5.50;;;8.60;99.90;;;;;;6247832;22;20566;-45
2022/10/04 07:17:12;;;;;;;7.60;4.97;;;8.60;99.90;;;;;;6154545;23;20224;-42
2022/10/04 07:19:46;;;;;;;8.77;5.70;;;8.70;99.90;;;;;;6155118;23;20145;-42
2022/10/04 07:22:27;;;;;;;10.33;5.23;;;8.70;99.90;;;;;;6216380;22;20155;-44
2022/10/04 07:25:04;;;;;;;13.30;5.83;;;8.80;99.90;;;;;;6245780;23;20481;-44
2022/10/04 07:27:45;;;;;;;10.77;5.30;;;8.80;99.90;;;;;;6247484;22;20203;-44
2022/10/04 07:30:15;;;;;;;10.83;5.20;;;8.90;99.90;;;;;;6247696;22;20503;-45
2022/10/04 07:32:47;;;;;;;9.73;5.33;;;8.90;99.90;;;;;;6245430;23;20183;-43
2022/10/04 07:35:44;;;;;;;10.87;5.27;;;9.00;99.90;;;;;;6247250;22;20525;-42
2022/10/04 07:38:19;;;;;;;9.60;5.27;;;9.10;99.90;;;;;;6240279;23;20297;-41
2022/10/04 07:41:08;;;;;;;8.97;4.90;;;9.10;99.90;;;;;;6247397;22;20481;-45
2022/10/04 07:43:56;;;;;;;13.07;5.50;;;9.20;99.90;;;;;;6202276;22;20201;-45
2022/10/04 07:46:42;;;;;;;9.77;5.13;;;9.30;99.90;;;;;;6246810;22;20266;-43
2022/10/04 07:49:19;;;;;;;13.07;5.40;;;9.40;99.90;;;;;;6247146;22;20206;-44
2022/10/04 07:51:57;;;;;;;10.70;5.47;;;9.40;99.90;;;;;;6246946;22;20139;-45
2022/10/04 07:54:42;;;;;;;10.37;5.63;;;9.50;99.90;;;;;;6247055;22;20199;-45
2022/10/04 07:57:16;;;;;;;10.30;5.27;;;9.60;99.90;;;;;;6247209;22;20225;-44
2022/10/04 08:00:11;;;;;;;10.30;5.80;;;9.70;99.90;;;;;;6247376;22;20166;-45
2022/10/04 08:02:58;;;;;;;10.90;6.60;;;9.90;99.90;;;;;;6246989;22;20642;-44
2022/10/04 08:05:35;;;;;;;14.63;6.57;;;10.00;99.90;;;;;;6247101;22;20139;-45
2022/10/04 08:08:42;;;;;;;13.07;5.27;;;10.10;99.90;;;;;;6246747;22;20179;-44
2022/10/04 08:11:30;;;;;;;10.67;5.50;;;10.20;99.90;;;;;;6247121;22;20143;-45
2022/10/04 08:14:23;;;;;;;8.50;3.93;;;10.30;99.90;;;;;;6247470;22;20178;-40
2022/10/04 08:17:07;;;;;;;13.30;5.00;;;10.40;99.90;;;;;;6246555;23;20632;-40
2022/10/04 08:19:55;;;;;;;8.67;5.00;;;10.40;99.90;;;;;;6247567;22;20179;-38
2022/10/04 08:22:41;;;;;;;10.03;4.93;;;10.50;99.90;;;;;;6246939;22;20148;-37
2022/10/04 08:25:32;;;;;;;8.70;4.87;;;10.60;99.90;;;;;;6246755;22;20159;-39
2022/10/04 08:31:23;;;;;;;9.47;4.90;;;10.70;99.90;;;;;;6246686;23;20153;-37
2022/10/04 08:34:01;;;;;;;9.70;5.67;;;10.80;99.90;;;;;;6240039;23;20457;-40
2022/10/04 08:36:47;;;;;;;10.17;5.93;;;11.00;99.90;;;;;;6247129;22;20243;-37
2022/10/04 08:39:43;;;;;;;14.07;5.23;;;11.10;99.90;;;;;;6246470;22;20140;-39
2022/10/04 08:42:27;;;;;;;10.00;5.33;;;11.20;99.90;;;;;;6247168;22;20142;-40
2022/10/04 08:45:22;;;;;;;10.33;5.37;;;11.40;99.90;;;;;;6246316;22;20167;-39
2022/10/04 08:48:17;;;;;;;10.73;5.93;;;11.50;99.90;;;;;;6246638;22;20578;-38
2022/10/04 08:51:12;;;;;;;9.97;5.13;;;11.60;99.90;;;;;;6246400;22;20584;-39
2022/10/04 08:54:13;;;;;;;9.13;5.00;;;11.80;99.90;;;;;;6246172;23;20503;-40
2022/10/04 08:56:57;;;;;;;11.13;5.13;;;11.90;99.90;;;;;;6246733;22;20173;-40
2022/10/04 08:59:38;;;;;;;7.57;4.90;;;12.00;99.90;;;;;;6246478;23;20142;-39
2022/10/04 09:02:12;;;;;;;10.47;5.10;;;12.10;99.90;;;;;;6246259;22;20159;-40
2022/10/04 09:04:52;;;;;;;8.90;5.23;;;12.20;99.90;;;;;;6246665;22;20149;-40
2022/10/04 09:07:42;;;;;;;9.40;5.30;;;12.30;99.90;;;;;;6244607;23;20175;-40
2022/10/04 09:10:30;;;;;;;12.73;5.40;;;12.50;99.90;;;;;;6246457;22;20246;-39
2022/10/04 09:13:26;;;;;;;9.20;5.07;;;12.60;99.90;;;;;;6246441;22;20498;-41
2022/10/04 09:16:11;;;;;;;13.03;5.43;;;12.70;99.90;;;;;;6203271;22;20295;-40
2022/10/04 09:19:00;;;;;;;10.60;5.37;;;12.90;99.90;;;;;;6246170;23;20171;-40
2022/10/04 09:22:06;;;;;;;8.70;5.03;;;13.00;99.90;;;;;;6231922;23;20230;-38
2022/10/04 09:24:52;;;;;;;8.73;4.73;;;13.10;99.90;;;;;;6201044;22;20617;-38
2022/10/04 09:27:29;;;;;;;14.03;5.10;;;13.30;99.90;;;;;;6246214;22;20175;-37
2022/10/04 09:30:35;;;;;;;18.90;5.53;;;13.40;99.90;;;;;;6246429;22;20471;-42
2022/10/04 09:33:24;;;;;;;9.63;5.40;;;13.50;99.90;;;;;;6171639;22;20198;-40
2022/10/04 09:36:36;;;;;;;19.13;5.60;;;13.70;99.90;;;;;;6245839;23;20490;-40
2022/10/04 09:39:11;;;;;;;10.43;4.93;;;13.80;99.90;;;;;;6246070;22;20155;-40
2022/10/04 09:41:51;;;;;;;19.20;5.57;;;13.90;99.90;;;;;;6246681;22;20585;-39
2022/10/04 09:44:35;;;;;;;9.53;5.00;;;14.10;99.90;;;;;;6246266;22;20597;-41
2022/10/04 09:47:30;;;;;;;8.57;5.10;;;14.20;99.90;;;;;;6245946;22;20202;-42
2022/10/04 09:50:34;;;;;;;10.60;4.97;;;14.30;99.90;;;;;;6219994;23;20172;-42
2022/10/04 09:53:05;;;;;;;9.10;4.53;;;14.50;99.90;;;;;;6246275;22;20214;-41
2022/10/04 09:56:00;;;;;;;7.30;4.70;;;14.60;99.90;;;;;;6245947;22;20456;-40
2022/10/04 09:58:59;;;;;;;9.03;4.53;;;14.80;99.90;;;;;;6226214;23;20214;-40
2022/10/04 10:01:39;;;;;;;7.53;4.70;;;14.90;99.90;;;;;;6215695;22;20229;-40
2022/10/04 10:04:05;;;;;;;12.30;4.33;;;15.00;99.90;;;;;;6246160;22;20136;-42
2022/10/04 10:06:54;;;;;;;7.93;5.03;;;15.10;99.90;;;;;;6245970;22;20241;-40
2022/10/04 10:15:54;;;;;;;7.80;4.43;;;15.50;99.90;;;;;;6246391;23;20159;-39
2022/10/04 10:18:45;;;;;;;7.47;4.10;;;15.60;99.90;;;;;;6246279;22;20610;-39
2022/10/04 10:21:25;;;;;;;7.27;3.57;;;15.70;99.90;;;;;;6246015;22;20230;-41
2022/10/04 10:24:12;;;;;;;12.40;4.17;;;15.80;99.90;;;;;;6246008;22;20144;-40
2022/10/04 10:27:06;;;;;;;9.27;3.80;;;16.00;99.90;;;;;;6245885;22;20174;-38
2022/10/04 10:29:50;;;;;;;8.70;3.60;;;16.10;99.90;;;;;;6246496;22;20582;-39
2022/10/04 10:32:37;;;;;;;9.33;3.93;;;16.30;99.90;;;;;;6246615;23;20505;-40
2022/10/04 10:35:22;;;;;;;9.67;3.77;;;16.40;99.90;;;;;;6247166;22;20171;-46
2022/10/04 10:38:06;;;;;;;10.30;3.77;;;16.40;99.90;;;;;;6247107;22;20503;-46
2022/10/04 10:40:58;;;;;;;9.03;3.97;;;16.60;99.90;;;;;;6247477;23;20269;-47
2022/10/04 10:43:40;;;;;;;11.07;3.60;;;16.70;99.90;;;;;;6248298;22;20164;-47
2022/10/04 10:46:20;;;;;;;7.43;3.10;;;16.80;99.90;;;;;;6248899;22;20140;-47
2022/10/04 10:48:49;;;;;;;8.30;3.33;;;17.00;99.90;;;;;;6247115;23;20158;-45
2022/10/04 10:51:57;;;;;;;8.23;3.43;;;17.20;99.90;;;;;;6249917;22;20171;-45
2022/10/04 10:55:00;;;;;;;8.13;3.40;;;17.30;99.90;;;;;;6249905;22;20614;-47
2022/10/04 10:57:54;;;;;;;8.43;3.00;;;17.50;99.90;;;;;;6249265;23;20187;-48
2022/10/04 11:00:23;;;;;;;5.03;2.60;;;17.60;99.90;;;;;;6249212;22;20156;-49
2022/10/04 11:03:22;;;;;;;4.67;2.87;;;17.70;99.90;;;;;;6248610;23;20211;-48
2022/10/04 11:06:09;;;;;;;7.50;3.53;;;17.80;99.90;;;;;;6251548;22;20534;-46
2022/10/04 11:08:34;;;;;;;6.37;3.20;;;17.90;99.90;;;;;;6251515;22;20140;-47
2022/10/04 11:11:18;;;;;;;9.87;4.13;;;18.10;99.90;;;;;;6252087;22;20164;-46
2022/10/04 11:14:11;;;;;;;6.93;3.50;;;18.20;99.90;;;;;;6252520;22;20199;-46
2022/10/04 11:17:15;;;;;;;5.33;2.80;;;18.20;99.90;;;;;;6252102;22;20171;-46
2022/10/04 11:19:45;;;;;;;5.80;2.90;;;18.40;99.90;;;;;;6251389;22;20136;-48
2022/10/04 11:22:29;;;;;;;10.87;3.27;;;18.50;99.90;;;;;;6251055;22;20155;-45
2022/10/04 11:25:06;;;;;;;3.27;2.43;;;18.60;99.90;;;;;;6249823;23;20171;-47
2022/10/04 11:28:01;;;;;;;5.33;3.33;;;18.70;99.90;;;;;;6250352;22;20490;-48
2022/10/04 11:30:53;;;;;;;4.53;2.90;;;18.70;99.90;;;;;;6250468;22;20147;-47
2022/10/04 11:33:39;;;;;;;5.43;3.30;;;18.90;99.90;;;;;;6209087;22;20179;-48
2022/10/04 11:36:19;;;;;;;8.47;3.13;;;19.00;99.90;;;;;;6251416;22;20547;-48
2022/10/04 11:38:56;;;;;;;3.80;2.57;;;19.10;99.90;;;;;;6251021;22;20148;-48
2022/10/04 11:41:42;;;;;;;3.77;2.60;;;19.20;99.90;;;;;;6251325;22;20147;-46
2022/10/04 11:44:28;;;;;;;6.00;3.07;;;19.30;99.90;;;;;;6249171;23;20175;-48
2022/10/04 11:47:13;;;;;;;5.87;3.03;;;19.50;99.90;;;;;;6250028;22;20182;-48
2022/10/04 11:49:49;;;;;;;6.43;3.17;;;19.50;99.90;;;;;;6250209;22;20142;-47
2022/10/04 11:52:35;;;;;;;6.67;3.07;;;19.50;99.90;;;;;;6250368;22;20140;-44
2022/10/04 11:55:20;;;;;;;7.37;3.20;;;19.60;99.90;;;;;;6246964;22;20140;-47
2022/10/04 11:58:24;;;;;;;7.27;2.97;;;19.70;99.90;;;;;;6247156;22;20175;-44
2022/10/04 12:01:30;;;;;;;6.00;2.90;;;19.80;99.90;;;;;;6247062;23;20562;-45
2022/10/04 12:04:21;;;;;;;4.93;3.10;;;19.90;99.90;;;;;;6245144;23;20594;-46
2022/10/04 12:06:58;;;;;;;5.13;2.70;;;20.00;99.90;;;;;;6247183;22;20207;-45
2022/10/04 12:09:48;;;;;;;5.97;2.40;;;20.10;99.90;;;;;;6247146;22;20574;-43
2022/10/04 12:13:00;;;;;;;5.73;3.03;;;20.20;99.90;;;;;;6247174;22;20178;-44
2022/10/04 12:15:56;;;;;;;6.37;2.80;;;20.30;99.90;;;;;;6247116;22;20486;-45
2022/10/04 12:18:34;;;;;;;6.10;2.87;;;20.40;99.90;;;;;;6246760;22;20178;-43
2022/10/04 12:21:29;;;;;;;3.97;2.13;;;20.50;99.90;;;;;;6246972;22;20198;-45
2022/10/04 12:24:19;;;;;;;4.03;2.37;;;20.70;99.90;;;;;;6246535;23;20156;-43
2022/10/04 12:26:58;;;;;;;3.87;2.47;;;20.80;99.90;;;;;;6246866;23;20182;-45
2022/10/04 12:29:35;;;;;;;3.43;2.30;;;20.90;99.90;;;;;;6246980;22;20164;-44
2022/10/04 12:32:31;;;;;;;5.73;2.20;;;21.00;99.90;;;;;;6246889;22;20183;-44
2022/10/04 12:35:26;;;;;;;4.77;2.13;;;21.10;99.90;;;;;;6237695;23;20540;-46
2022/10/04 12:38:09;;;;;;;4.70;2.40;;;21.20;99.90;;;;;;6203511;22;20190;-45
2022/10/04 12:40:58;;;;;;;5.50;2.40;;;21.20;99.90;;;;;;6246466;22;20159;-47
2022/10/04 12:43:48;;;;;;;6.27;2.27;;;21.30;99.90;;;;;;6244770;23;20172;-46
2022/10/04 12:46:36;;;;;;;4.80;2.57;;;21.30;99.90;;;;;;6244698;23;20183;-44
2022/10/04 12:49:13;;;;;;;2.73;2.13;;;21.40;99.90;;;;;;6246372;22;20158;-45
2022/10/04 12:51:58;;;;;;;3.77;2.07;;;21.40;99.90;;;;;;6246709;22;20140;-46
2022/10/04 12:54:42;;;;;;;6.67;2.40;;;21.40;99.90;;;;;;6246536;22;20178;-47
2022/10/04 12:57:13;;;;;;;3.70;2.13;;;21.40;99.90;;;;;;6246940;22;20254;-47
2022/10/04 12:59:59;;;;;;;6.13;2.23;;;21.40;99.90;;;;;;6246748;22;20191;-47
2022/10/04 13:02:44;;;;;;;4.07;2.10;;;21.50;99.90;;;;;;6246306;22;20160;-46
2022/10/04 13:05:18;;;;;;;4.50;2.07;;;21.50;99.90;;;;;;6246381;22;20140;-46
2022/10/04 13:07:56;;;;;;;3.43;2.13;;;21.60;99.90;;;;;;6246426;22;20167;-45
2022/10/04 13:10:59;;;;;;;3.40;1.90;;;21.60;99.90;;;;;;6246532;22;20155;-44
2022/10/04 13:13:43;;;;;;;4.37;2.43;;;21.70;99.90;;;;;;6210478;22;20617;-45
2022/10/04 13:16:21;;;;;;;5.80;2.40;;;21.80;99.90;;;;;;6246444;22;20136;-46
2022/10/04 13:18:58;;;;;;;4.07;2.17;;;21.80;99.90;;;;;;6246525;22;20159;-46
2022/10/04 13:21:24;;;;;;;3.43;2.00;;;21.90;99.90;;;;;;6246435;22;20147;-46
2022/10/04 13:23:55;;;;;;;5.83;2.10;;;21.90;99.90;;;;;;6246104;22;20609;-46
2022/10/04 13:26:56;;;;;;;4.23;2.03;;;22.00;99.90;;;;;;6246330;22;20186;-46
2022/10/04 13:29:31;;;;;;;4.47;2.00;;;22.00;99.90;;;;;;6246398;22;20156;-45
2022/10/04 13:32:22;;;;;;;4.13;2.23;;;22.10;99.90;;;;;;6244612;23;20155;-43
2022/10/04 13:34:58;;;;;;;3.43;1.93;;;22.20;99.90;;;;;;6246273;22;20617;-45
2022/10/04 13:37:34;;;;;;;6.53;2.23;;;22.30;99.90;;;;;;6246062;23;20194;-45
2022/10/04 13:40:20;;;;;;;2.63;1.83;;;22.40;99.90;;;;;;6246362;22;20139;-47
2022/10/04 13:43:14;;;;;;;2.20;1.67;;;22.40;99.90;;;;;;6244352;23;20247;-46
2022/10/04 13:46:01;;;;;;;3.50;1.73;;;22.40;99.90;;;;;;6206944;22;20254;-46
2022/10/04 13:48:48;;;;;;;6.83;2.10;;;22.40;99.90;;;;;;6246026;23;20482;-46
2022/10/04 13:51:19;;;;;;;8.67;2.40;;;22.40;99.90;;;;;;6246365;22;20190;-45
2022/10/04 13:57:16;;;;;;;3.80;1.80;;;22.50;99.90;;;;;;6246031;23;20179;-45
2022/10/04 13:59:48;;;;;;;4.60;2.17;;;22.50;99.90;;;;;;6246635;22;20155;-44
2022/10/04 14:02:28;;;;;;;5.50;1.73;;;22.70;99.90;;;;;;6246268;22;20170;-47
2022/10/04 14:05:25;;;;;;;3.00;1.97;;;22.70;99.90;;;;;;6246769;22;20254;-45
2022/10/04 14:08:04;;;;;;;3.17;1.87;;;22.70;99.90;;;;;;6245733;22;20176;-47
2022/10/04 14:10:55;;;;;;;4.33;1.73;;;22.70;99.90;;;;;;6246222;22;20472;-47
2022/10/04 14:13:50;;;;;;;2.90;1.87;;;22.70;99.90;;;;;;6246272;23;20171;-47
2022/10/04 14:16:33;;;;;;;3.83;1.90;;;22.70;99.90;;;;;;6246886;22;20136;-42